PGT1548 LTBS-LTFJ
Flight info
| Callsign | PGT1548 |
|---|---|
| Flight time | 0h 59m |
| Altitude | 33000 |
| Route | RIVBU DCT BAGLU DCT ATGIT UT30 SIVKU UL610 ETAMP |
| Aircraft | A21N/M-SDE2E3FGHIRWXY/LB1 |
Departure
| Time | 2026-04-15 20:06 |
|---|---|
| Airport | Dalaman International Airport (LTBS) |
Arrival
| Time | 2026-04-15 21:05 |
|---|---|
| Airport | Istanbul Sabiha Gökçen International Airport (LTFJ) |
| Time | Latitude | Longitude | Altitude | Speed | Heading |
|---|---|---|---|---|---|
| 2026-04-15 19:28 | 36.71705 | 28.78850 | 19 ft | 0 kts | 285° |
| 2026-04-15 19:52 | 36.71704 | 28.78850 | 18 ft | 1 kts | 285° |
| 2026-04-15 19:53 | 36.71697 | 28.78878 | 19 ft | 4 kts | 295° |
| 2026-04-15 19:53 | 36.71683 | 28.78906 | 19 ft | 4 kts | 311° |
| 2026-04-15 19:53 | 36.71663 | 28.78926 | 19 ft | 4 kts | 343° |
| 2026-04-15 19:53 | 36.71647 | 28.78928 | 21 ft | 0 kts | 17° |
| 2026-04-15 19:59 | 36.71658 | 28.78932 | 20 ft | 3 kts | 16° |
| 2026-04-15 19:59 | 36.71690 | 28.78944 | 18 ft | 6 kts | 16° |
| 2026-04-15 19:59 | 36.71735 | 28.78960 | 18 ft | 8 kts | 16° |
| 2026-04-15 20:00 | 36.71792 | 28.78978 | 19 ft | 9 kts | 14° |
| 2026-04-15 20:00 | 36.71839 | 28.78994 | 18 ft | 5 kts | 15° |
| 2026-04-15 20:00 | 36.71881 | 28.79010 | 18 ft | 7 kts | 26° |
| 2026-04-15 20:00 | 36.71893 | 28.79072 | 18 ft | 9 kts | 102° |
| 2026-04-15 20:01 | 36.71878 | 28.79149 | 18 ft | 9 kts | 104° |
| 2026-04-15 20:01 | 36.71887 | 28.79229 | 18 ft | 11 kts | 38° |
| 2026-04-15 20:01 | 36.71966 | 28.79260 | 18 ft | 13 kts | 14° |
| 2026-04-15 20:01 | 36.72056 | 28.79291 | 17 ft | 14 kts | 15° |
| 2026-04-15 20:02 | 36.72154 | 28.79325 | 17 ft | 16 kts | 15° |
| 2026-04-15 20:02 | 36.72264 | 28.79363 | 17 ft | 17 kts | 16° |
| 2026-04-15 20:02 | 36.72381 | 28.79403 | 17 ft | 18 kts | 15° |
| 2026-04-15 20:02 | 36.72476 | 28.79435 | 17 ft | 12 kts | 15° |
| 2026-04-15 20:03 | 36.72561 | 28.79463 | 17 ft | 13 kts | 14° |
| 2026-04-15 20:03 | 36.72607 | 28.79479 | 17 ft | 7 kts | 15° |
| 2026-04-15 20:03 | 36.72648 | 28.79505 | 19 ft | 7 kts | 64° |
| 2026-04-15 20:03 | 36.72640 | 28.79573 | 17 ft | 9 kts | 105° |
| 2026-04-15 20:04 | 36.72621 | 28.79654 | 17 ft | 10 kts | 109° |
| 2026-04-15 20:04 | 36.72584 | 28.79679 | 17 ft | 5 kts | 185° |
| 2026-04-15 20:04 | 36.72546 | 28.79669 | 17 ft | 6 kts | 194° |
| 2026-04-15 20:04 | 36.72497 | 28.79653 | 17 ft | 8 kts | 196° |
| 2026-04-15 20:05 | 36.72376 | 28.79611 | 17 ft | 45 kts | 195° |
| 2026-04-15 20:05 | 36.71842 | 28.79429 | 18 ft | 112 kts | 195° |
| 2026-04-15 20:05 | 36.70908 | 28.79112 | 19 ft | 164 kts | 195° |
| 2026-04-15 20:05 | 36.69782 | 28.78720 | 518 ft | 164 kts | 196° |
| 2026-04-15 20:06 | 36.68677 | 28.78349 | 1122 ft | 166 kts | 196° |
| 2026-04-15 20:06 | 36.67551 | 28.77975 | 1700 ft | 169 kts | 195° |
| 2026-04-15 20:06 | 36.66359 | 28.77570 | 2111 ft | 188 kts | 195° |
| 2026-04-15 20:06 | 36.65023 | 28.77113 | 2565 ft | 210 kts | 195° |
| 2026-04-15 20:07 | 36.63557 | 28.76614 | 3144 ft | 228 kts | 194° |
| 2026-04-15 20:07 | 36.61938 | 28.76064 | 3554 ft | 253 kts | 194° |
| 2026-04-15 20:07 | 36.60203 | 28.75473 | 4155 ft | 266 kts | 194° |
| 2026-04-15 20:07 | 36.58370 | 28.75042 | 4960 ft | 269 kts | 179° |
| 2026-04-15 20:08 | 36.56563 | 28.75488 | 5837 ft | 265 kts | 154° |
| 2026-04-15 20:08 | 36.55105 | 28.76852 | 6665 ft | 265 kts | 130° |
| 2026-04-15 20:08 | 36.54219 | 28.78883 | 7447 ft | 272 kts | 110° |
| 2026-04-15 20:08 | 36.53724 | 28.81178 | 8230 ft | 277 kts | 105° |
| 2026-04-15 20:09 | 36.53267 | 28.83528 | 9020 ft | 282 kts | 105° |
| 2026-04-15 20:09 | 36.52789 | 28.85882 | 9810 ft | 287 kts | 105° |
| 2026-04-15 20:09 | 36.52274 | 28.88333 | 10372 ft | 301 kts | 105° |
| 2026-04-15 20:09 | 36.51966 | 28.90975 | 10835 ft | 317 kts | 89° |
| 2026-04-15 20:10 | 36.52399 | 28.93674 | 11524 ft | 324 kts | 68° |
| 2026-04-15 20:10 | 36.53637 | 28.96049 | 12117 ft | 335 kts | 45° |
| 2026-04-15 20:10 | 36.55582 | 28.97740 | 12460 ft | 351 kts | 22° |
| 2026-04-15 20:10 | 36.57977 | 28.98642 | 12782 ft | 368 kts | 12° |
| 2026-04-15 20:11 | 36.60529 | 28.99375 | 13051 ft | 385 kts | 12° |
| 2026-04-15 20:11 | 36.63181 | 29.00183 | 13349 ft | 398 kts | 13° |
| 2026-04-15 20:11 | 36.65889 | 29.01068 | 13875 ft | 403 kts | 14° |
| 2026-04-15 20:11 | 36.68561 | 29.01977 | 14398 ft | 405 kts | 14° |
| 2026-04-15 20:12 | 36.71295 | 29.02921 | 14910 ft | 407 kts | 14° |
| 2026-04-15 20:12 | 36.74038 | 29.03861 | 15410 ft | 410 kts | 14° |
| 2026-04-15 20:12 | 36.76794 | 29.04804 | 15894 ft | 413 kts | 14° |
| 2026-04-15 20:12 | 36.79577 | 29.05761 | 16347 ft | 417 kts | 15° |
| 2026-04-15 20:13 | 36.82386 | 29.06731 | 16810 ft | 420 kts | 15° |
| 2026-04-15 20:13 | 36.85213 | 29.07713 | 17258 ft | 423 kts | 15° |
| 2026-04-15 20:13 | 36.88061 | 29.08710 | 17698 ft | 427 kts | 15° |
| 2026-04-15 20:13 | 36.90931 | 29.09701 | 18153 ft | 430 kts | 15° |
| 2026-04-15 20:14 | 36.93829 | 29.10696 | 18556 ft | 433 kts | 15° |
| 2026-04-15 20:14 | 36.96710 | 29.11835 | 18960 ft | 435 kts | 20° |
| 2026-04-15 20:14 | 36.99651 | 29.12756 | 19360 ft | 437 kts | 7° |
| 2026-04-15 20:14 | 37.02655 | 29.12911 | 19761 ft | 439 kts | 358° |
| 2026-04-15 20:15 | 37.05713 | 29.12729 | 20170 ft | 441 kts | 356° |
| 2026-04-15 20:15 | 37.08790 | 29.12464 | 20617 ft | 443 kts | 355° |
| 2026-04-15 20:15 | 37.11860 | 29.12186 | 21082 ft | 444 kts | 355° |
| 2026-04-15 20:15 | 37.14961 | 29.11904 | 21518 ft | 447 kts | 355° |
| 2026-04-15 20:16 | 37.18081 | 29.11613 | 21943 ft | 450 kts | 355° |
| 2026-04-15 20:16 | 37.21211 | 29.11322 | 22422 ft | 452 kts | 355° |
| 2026-04-15 20:16 | 37.24356 | 29.11033 | 22885 ft | 454 kts | 355° |
| 2026-04-15 20:16 | 37.27519 | 29.10743 | 23340 ft | 457 kts | 355° |
| 2026-04-15 20:17 | 37.30708 | 29.10451 | 23774 ft | 460 kts | 355° |
| 2026-04-15 20:17 | 37.33903 | 29.10161 | 24150 ft | 461 kts | 355° |
| 2026-04-15 20:17 | 37.37112 | 29.09876 | 24423 ft | 465 kts | 355° |
| 2026-04-15 20:17 | 37.40353 | 29.09599 | 24698 ft | 468 kts | 355° |
| 2026-04-15 20:18 | 37.43609 | 29.09327 | 25023 ft | 469 kts | 355° |
| 2026-04-15 20:18 | 37.46824 | 29.09079 | 25415 ft | 468 kts | 357° |
| 2026-04-15 20:18 | 37.50111 | 29.09433 | 25778 ft | 469 kts | 11° |
| 2026-04-15 20:18 | 37.53160 | 29.10750 | 26148 ft | 471 kts | 25° |
| 2026-04-15 20:19 | 37.55923 | 29.12964 | 26522 ft | 472 kts | 36° |
| 2026-04-15 20:19 | 37.58537 | 29.15491 | 26836 ft | 473 kts | 37° |
| 2026-04-15 20:19 | 37.61139 | 29.18030 | 27209 ft | 472 kts | 36° |
| 2026-04-15 20:19 | 37.63749 | 29.20548 | 27598 ft | 471 kts | 36° |
| 2026-04-15 20:20 | 37.66356 | 29.23049 | 27980 ft | 471 kts | 36° |
| 2026-04-15 20:20 | 37.68968 | 29.25552 | 28376 ft | 470 kts | 36° |
| 2026-04-15 20:20 | 37.71564 | 29.28038 | 28833 ft | 467 kts | 37° |
| 2026-04-15 20:20 | 37.74145 | 29.30544 | 29209 ft | 467 kts | 37° |
| 2026-04-15 20:21 | 37.76728 | 29.33042 | 29573 ft | 466 kts | 36° |
| 2026-04-15 20:21 | 37.79282 | 29.35490 | 29944 ft | 465 kts | 36° |
| 2026-04-15 20:21 | 37.81020 | 29.37157 | 30195 ft | 465 kts | 36° |
| 2026-04-15 20:21 | 37.83594 | 29.39630 | 30501 ft | 464 kts | 36° |
| 2026-04-15 20:22 | 37.86165 | 29.42106 | 30788 ft | 464 kts | 36° |
| 2026-04-15 20:22 | 37.88735 | 29.44581 | 31092 ft | 464 kts | 36° |
| 2026-04-15 20:22 | 37.92150 | 29.47861 | 31426 ft | 465 kts | 36° |
| 2026-04-15 20:22 | 37.94721 | 29.50333 | 31680 ft | 465 kts | 36° |
| 2026-04-15 20:23 | 37.96466 | 29.52012 | 31852 ft | 466 kts | 36° |
| 2026-04-15 20:23 | 37.99049 | 29.54494 | 32116 ft | 466 kts | 36° |
| 2026-04-15 20:23 | 38.01630 | 29.56981 | 32370 ft | 466 kts | 36° |
| 2026-04-15 20:23 | 38.04216 | 29.59470 | 32636 ft | 466 kts | 36° |
| 2026-04-15 20:24 | 38.06798 | 29.61956 | 32906 ft | 466 kts | 36° |
| 2026-04-15 20:24 | 38.11905 | 29.66923 | 33166 ft | 465 kts | 36° |
| 2026-04-15 20:25 | 38.17050 | 29.71905 | 33139 ft | 464 kts | 35° |
| 2026-04-15 20:25 | 38.19761 | 29.74105 | 33125 ft | 461 kts | 24° |
| 2026-04-15 20:25 | 38.22750 | 29.75559 | 33128 ft | 459 kts | 12° |
| 2026-04-15 20:26 | 38.29000 | 29.77126 | 33136 ft | 457 kts | 7° |
| 2026-04-15 20:26 | 38.35261 | 29.78607 | 33131 ft | 457 kts | 8° |
| 2026-04-15 20:27 | 38.41455 | 29.80124 | 33132 ft | 454 kts | 8° |
| 2026-04-15 20:27 | 38.47629 | 29.81635 | 33134 ft | 455 kts | 8° |
| 2026-04-15 20:28 | 38.53891 | 29.83174 | 33147 ft | 458 kts | 8° |
| 2026-04-15 20:28 | 38.60142 | 29.84726 | 33151 ft | 457 kts | 8° |
| 2026-04-15 20:29 | 38.66408 | 29.86278 | 33148 ft | 458 kts | 7° |
| 2026-04-15 20:29 | 38.72672 | 29.87829 | 33147 ft | 458 kts | 7° |
| 2026-04-15 20:30 | 38.78900 | 29.89369 | 33149 ft | 453 kts | 7° |
| 2026-04-15 20:30 | 38.85071 | 29.90904 | 33089 ft | 449 kts | 7° |
| 2026-04-15 20:30 | 38.88107 | 29.91656 | 32702 ft | 454 kts | 7° |
| 2026-04-15 20:31 | 38.91218 | 29.92430 | 32412 ft | 456 kts | 8° |
| 2026-04-15 20:31 | 38.94327 | 29.93210 | 32143 ft | 454 kts | 8° |
| 2026-04-15 20:31 | 38.97424 | 29.93982 | 31891 ft | 452 kts | 7° |
| 2026-04-15 20:31 | 39.00504 | 29.94749 | 31639 ft | 449 kts | 7° |
| 2026-04-15 20:32 | 39.03566 | 29.95512 | 31384 ft | 447 kts | 8° |
| 2026-04-15 20:32 | 39.06614 | 29.96272 | 31143 ft | 445 kts | 8° |
| 2026-04-15 20:32 | 39.10270 | 29.97088 | 30840 ft | 440 kts | 2° |
| 2026-04-15 20:32 | 39.13303 | 29.97125 | 30593 ft | 433 kts | 351° |
| 2026-04-15 20:33 | 39.16234 | 29.96383 | 30357 ft | 427 kts | 340° |
| 2026-04-15 20:33 | 39.18993 | 29.94996 | 30123 ft | 424 kts | 334° |
| 2026-04-15 20:33 | 39.21677 | 29.93449 | 29830 ft | 422 kts | 333° |
| 2026-04-15 20:33 | 39.24345 | 29.91894 | 29544 ft | 420 kts | 334° |
| 2026-04-15 20:34 | 39.27010 | 29.90361 | 29265 ft | 419 kts | 334° |
| 2026-04-15 20:34 | 39.29669 | 29.88844 | 28989 ft | 417 kts | 334° |
| 2026-04-15 20:34 | 39.32322 | 29.87339 | 28718 ft | 416 kts | 334° |
| 2026-04-15 20:34 | 39.34942 | 29.85853 | 28438 ft | 414 kts | 334° |
| 2026-04-15 20:35 | 39.37577 | 29.84358 | 28185 ft | 413 kts | 334° |
| 2026-04-15 20:35 | 39.40205 | 29.82874 | 27909 ft | 411 kts | 334° |
| 2026-04-15 20:35 | 39.42815 | 29.81412 | 27449 ft | 407 kts | 334° |
| 2026-04-15 20:35 | 39.45403 | 29.79965 | 26892 ft | 404 kts | 334° |
| 2026-04-15 20:36 | 39.47982 | 29.78522 | 26326 ft | 402 kts | 334° |
| 2026-04-15 20:36 | 39.50542 | 29.77086 | 25790 ft | 400 kts | 334° |
| 2026-04-15 20:36 | 39.53085 | 29.75652 | 25271 ft | 397 kts | 334° |
| 2026-04-15 20:36 | 39.55614 | 29.74221 | 24737 ft | 396 kts | 334° |
| 2026-04-15 20:37 | 39.58140 | 29.72792 | 24209 ft | 395 kts | 334° |
| 2026-04-15 20:37 | 39.60646 | 29.71377 | 23842 ft | 392 kts | 334° |
| 2026-04-15 20:37 | 39.63143 | 29.69969 | 23556 ft | 391 kts | 334° |
| 2026-04-15 20:37 | 39.65625 | 29.68572 | 23266 ft | 387 kts | 334° |
| 2026-04-15 20:38 | 39.68085 | 29.67186 | 22994 ft | 385 kts | 334° |
| 2026-04-15 20:38 | 39.70533 | 29.65799 | 22720 ft | 383 kts | 334° |
| 2026-04-15 20:38 | 39.72968 | 29.64417 | 22452 ft | 381 kts | 334° |
| 2026-04-15 20:38 | 39.75361 | 29.63061 | 22200 ft | 379 kts | 334° |
| 2026-04-15 20:39 | 39.77781 | 29.61694 | 21880 ft | 377 kts | 334° |
| 2026-04-15 20:39 | 39.80179 | 29.60334 | 21402 ft | 374 kts | 334° |
| 2026-04-15 20:39 | 39.82551 | 29.58990 | 20903 ft | 371 kts | 334° |
| 2026-04-15 20:39 | 39.84914 | 29.57651 | 20410 ft | 369 kts | 334° |
| 2026-04-15 20:40 | 39.87255 | 29.56320 | 19935 ft | 366 kts | 334° |
| 2026-04-15 20:40 | 39.88800 | 29.55439 | 19607 ft | 365 kts | 334° |
| 2026-04-15 20:40 | 39.91148 | 29.54173 | 19154 ft | 363 kts | 339° |
| 2026-04-15 20:40 | 39.94331 | 29.52969 | 18855 ft | 348 kts | 342° |
| 2026-04-15 20:41 | 39.95857 | 29.52416 | 18724 ft | 339 kts | 342° |
| 2026-04-15 20:41 | 39.98087 | 29.51606 | 18564 ft | 326 kts | 341° |
| 2026-04-15 20:41 | 40.00259 | 29.50813 | 18057 ft | 322 kts | 341° |
| 2026-04-15 20:41 | 40.02416 | 29.50022 | 17448 ft | 321 kts | 341° |
| 2026-04-15 20:42 | 40.04554 | 29.49238 | 16896 ft | 317 kts | 341° |
| 2026-04-15 20:42 | 40.06659 | 29.48466 | 16465 ft | 311 kts | 341° |
| 2026-04-15 20:42 | 40.08775 | 29.47916 | 16109 ft | 312 kts | 355° |
| 2026-04-15 20:42 | 40.10930 | 29.48301 | 15772 ft | 316 kts | 13° |
| 2026-04-15 20:43 | 40.13023 | 29.49162 | 15437 ft | 316 kts | 15° |
| 2026-04-15 20:43 | 40.15107 | 29.50066 | 15093 ft | 315 kts | 15° |
| 2026-04-15 20:43 | 40.17165 | 29.50950 | 14752 ft | 314 kts | 14° |
| 2026-04-15 20:43 | 40.19245 | 29.51833 | 14409 ft | 314 kts | 14° |
| 2026-04-15 20:44 | 40.21326 | 29.52708 | 14061 ft | 314 kts | 14° |
| 2026-04-15 20:44 | 40.23408 | 29.53576 | 13685 ft | 314 kts | 14° |
| 2026-04-15 20:44 | 40.25509 | 29.54177 | 13290 ft | 303 kts | 358° |
| 2026-04-15 20:44 | 40.27520 | 29.53755 | 12912 ft | 287 kts | 334° |
| 2026-04-15 20:45 | 40.29200 | 29.52423 | 12563 ft | 280 kts | 321° |
| 2026-04-15 20:45 | 40.30737 | 29.50868 | 12229 ft | 279 kts | 320° |
| 2026-04-15 20:45 | 40.32263 | 29.49316 | 11897 ft | 278 kts | 320° |
| 2026-04-15 20:45 | 40.33800 | 29.47778 | 11562 ft | 277 kts | 321° |
| 2026-04-15 20:46 | 40.35332 | 29.46263 | 11235 ft | 276 kts | 321° |
| 2026-04-15 20:46 | 40.36869 | 29.44757 | 10912 ft | 275 kts | 321° |
| 2026-04-15 20:46 | 40.38406 | 29.43256 | 10603 ft | 275 kts | 320° |
| 2026-04-15 20:46 | 40.39768 | 29.41536 | 10299 ft | 271 kts | 304° |
| 2026-04-15 20:47 | 40.40507 | 29.39327 | 10060 ft | 262 kts | 281° |
| 2026-04-15 20:47 | 40.40599 | 29.36987 | 9905 ft | 251 kts | 270° |
| 2026-04-15 20:47 | 40.40538 | 29.34733 | 9638 ft | 245 kts | 269° |
| 2026-04-15 20:47 | 40.40499 | 29.32523 | 9233 ft | 245 kts | 274° |
| 2026-04-15 20:48 | 40.40761 | 29.30321 | 8816 ft | 245 kts | 283° |
| 2026-04-15 20:48 | 40.41158 | 29.28150 | 8418 ft | 245 kts | 284° |
| 2026-04-15 20:48 | 40.41557 | 29.25979 | 8065 ft | 246 kts | 284° |
| 2026-04-15 20:48 | 40.41951 | 29.23794 | 7955 ft | 246 kts | 284° |
| 2026-04-15 20:49 | 40.42342 | 29.21598 | 7954 ft | 247 kts | 284° |
| 2026-04-15 20:49 | 40.42729 | 29.19396 | 7964 ft | 247 kts | 284° |
| 2026-04-15 20:49 | 40.43113 | 29.17196 | 7974 ft | 247 kts | 284° |
| 2026-04-15 20:49 | 40.43496 | 29.14997 | 7976 ft | 248 kts | 283° |
| 2026-04-15 20:50 | 40.43877 | 29.12790 | 7980 ft | 247 kts | 283° |
| 2026-04-15 20:50 | 40.44255 | 29.10590 | 7972 ft | 247 kts | 283° |
| 2026-04-15 20:50 | 40.44635 | 29.08387 | 7980 ft | 247 kts | 283° |
| 2026-04-15 20:50 | 40.45015 | 29.06182 | 7973 ft | 247 kts | 283° |
| 2026-04-15 20:51 | 40.45393 | 29.03980 | 7973 ft | 247 kts | 283° |
| 2026-04-15 20:51 | 40.45771 | 29.01778 | 7972 ft | 247 kts | 283° |
| 2026-04-15 20:51 | 40.46151 | 28.99573 | 7976 ft | 247 kts | 283° |
| 2026-04-15 20:51 | 40.46532 | 28.97370 | 7976 ft | 247 kts | 283° |
| 2026-04-15 20:52 | 40.46905 | 28.95196 | 7764 ft | 241 kts | 283° |
| 2026-04-15 20:52 | 40.47273 | 28.93044 | 7339 ft | 242 kts | 284° |
| 2026-04-15 20:52 | 40.47643 | 28.90886 | 6959 ft | 242 kts | 284° |
| 2026-04-15 20:52 | 40.48012 | 28.88736 | 6589 ft | 241 kts | 284° |
| 2026-04-15 20:53 | 40.48377 | 28.86591 | 6191 ft | 241 kts | 285° |
| 2026-04-15 20:53 | 40.48739 | 28.84471 | 5801 ft | 241 kts | 284° |
| 2026-04-15 20:53 | 40.49110 | 28.82301 | 5423 ft | 240 kts | 284° |
| 2026-04-15 20:53 | 40.49646 | 28.80249 | 5006 ft | 241 kts | 301° |
| 2026-04-15 20:54 | 40.50811 | 28.78702 | 4585 ft | 241 kts | 331° |
| 2026-04-15 20:54 | 40.52410 | 28.78137 | 4217 ft | 241 kts | 1° |
| 2026-04-15 20:54 | 40.54013 | 28.78669 | 4019 ft | 240 kts | 28° |
| 2026-04-15 20:54 | 40.55369 | 28.79939 | 3953 ft | 240 kts | 38° |
| 2026-04-15 20:55 | 40.56679 | 28.81312 | 3954 ft | 240 kts | 38° |
| 2026-04-15 20:55 | 40.57993 | 28.82661 | 3967 ft | 239 kts | 37° |
| 2026-04-15 20:55 | 40.59312 | 28.83994 | 3975 ft | 239 kts | 37° |
| 2026-04-15 20:55 | 40.60642 | 28.85323 | 3980 ft | 241 kts | 37° |
| 2026-04-15 20:56 | 40.61974 | 28.86642 | 3978 ft | 234 kts | 36° |
| 2026-04-15 20:56 | 40.63227 | 28.87877 | 3966 ft | 219 kts | 36° |
| 2026-04-15 20:56 | 40.64448 | 28.89076 | 3960 ft | 218 kts | 36° |
| 2026-04-15 20:56 | 40.65668 | 28.90277 | 3969 ft | 219 kts | 36° |
| 2026-04-15 20:57 | 40.66871 | 28.91461 | 3979 ft | 219 kts | 36° |
| 2026-04-15 20:57 | 40.68085 | 28.92658 | 3981 ft | 218 kts | 36° |
| 2026-04-15 20:57 | 40.69320 | 28.93873 | 3982 ft | 219 kts | 36° |
| 2026-04-15 20:57 | 40.70526 | 28.95063 | 3988 ft | 219 kts | 36° |
| 2026-04-15 20:58 | 40.71748 | 28.96268 | 3988 ft | 220 kts | 36° |
| 2026-04-15 20:58 | 40.72971 | 28.97475 | 3990 ft | 220 kts | 36° |
| 2026-04-15 20:58 | 40.74200 | 28.98688 | 3989 ft | 220 kts | 36° |
| 2026-04-15 20:58 | 40.75429 | 28.99902 | 3988 ft | 221 kts | 36° |
| 2026-04-15 20:59 | 40.76651 | 29.01124 | 3987 ft | 220 kts | 39° |
| 2026-04-15 20:59 | 40.77627 | 29.02572 | 3871 ft | 205 kts | 56° |
| 2026-04-15 20:59 | 40.78366 | 29.04161 | 3619 ft | 202 kts | 58° |
| 2026-04-15 20:59 | 40.79094 | 29.05728 | 3298 ft | 199 kts | 58° |
| 2026-04-15 21:00 | 40.79817 | 29.07244 | 3081 ft | 189 kts | 58° |
| 2026-04-15 21:00 | 40.80495 | 29.08673 | 2970 ft | 180 kts | 60° |
| 2026-04-15 21:00 | 40.81074 | 29.10132 | 2966 ft | 180 kts | 65° |
| 2026-04-15 21:00 | 40.81623 | 29.11626 | 2985 ft | 180 kts | 64° |
| 2026-04-15 21:01 | 40.82170 | 29.13109 | 2995 ft | 178 kts | 64° |
| 2026-04-15 21:01 | 40.82688 | 29.14517 | 2893 ft | 164 kts | 64° |
| 2026-04-15 21:01 | 40.83170 | 29.15825 | 2731 ft | 157 kts | 64° |
| 2026-04-15 21:01 | 40.83650 | 29.17129 | 2551 ft | 159 kts | 64° |
| 2026-04-15 21:02 | 40.84128 | 29.18429 | 2340 ft | 156 kts | 65° |
| 2026-04-15 21:02 | 40.84601 | 29.19713 | 2121 ft | 154 kts | 65° |
| 2026-04-15 21:02 | 40.85070 | 29.20985 | 1901 ft | 154 kts | 65° |
| 2026-04-15 21:02 | 40.85537 | 29.22255 | 1680 ft | 154 kts | 65° |
| 2026-04-15 21:03 | 40.86001 | 29.23514 | 1462 ft | 146 kts | 64° |
| 2026-04-15 21:03 | 40.86413 | 29.24634 | 1258 ft | 133 kts | 63° |
| 2026-04-15 21:03 | 40.86817 | 29.25734 | 1077 ft | 133 kts | 63° |
| 2026-04-15 21:03 | 40.87217 | 29.26814 | 884 ft | 132 kts | 63° |
| 2026-04-15 21:04 | 40.87611 | 29.27899 | 701 ft | 130 kts | 60° |
| 2026-04-15 21:04 | 40.87995 | 29.28968 | 541 ft | 128 kts | 62° |
| 2026-04-15 21:04 | 40.88393 | 29.30019 | 361 ft | 128 kts | 61° |
| 2026-04-15 21:04 | 40.88788 | 29.31073 | 316 ft | 128 kts | 60° |
| 2026-04-15 21:05 | 40.89151 | 29.32040 | 312 ft | 99 kts | 65° |
| 2026-04-15 21:05 | 40.89367 | 29.32653 | 308 ft | 50 kts | 63° |
| 2026-04-15 21:05 | 40.89439 | 29.32853 | 307 ft | 0 kts | 65° |
| 2026-04-15 21:05 | 40.89452 | 29.32890 | 307 ft | 16 kts | 65° |
| 2026-04-15 21:06 | 40.89510 | 29.33038 | 306 ft | 19 kts | 64° |
| 2026-04-15 21:06 | 40.89587 | 29.33186 | 307 ft | 20 kts | 51° |
| 2026-04-15 21:06 | 40.89674 | 29.33277 | 309 ft | 11 kts | 35° |
| 2026-04-15 21:06 | 40.89746 | 29.33341 | 308 ft | 13 kts | 34° |
| 2026-04-15 21:07 | 40.89813 | 29.33336 | 308 ft | 12 kts | 297° |
| 2026-04-15 21:07 | 40.89789 | 29.33227 | 309 ft | 14 kts | 243° |
| 2026-04-15 21:07 | 40.89744 | 29.33105 | 310 ft | 16 kts | 244° |
| 2026-04-15 21:07 | 40.89693 | 29.32967 | 313 ft | 18 kts | 243° |
| 2026-04-15 21:08 | 40.89635 | 29.32814 | 312 ft | 19 kts | 244° |
| 2026-04-15 21:08 | 40.89575 | 29.32648 | 312 ft | 21 kts | 244° |
| 2026-04-15 21:08 | 40.89514 | 29.32485 | 312 ft | 16 kts | 243° |
| 2026-04-15 21:08 | 40.89532 | 29.32363 | 312 ft | 15 kts | 343° |
| 2026-04-15 21:09 | 40.89637 | 29.32319 | 311 ft | 17 kts | 334° |
| 2026-04-15 21:09 | 40.89746 | 29.32248 | 313 ft | 18 kts | 333° |
| 2026-04-15 21:09 | 40.89869 | 29.32169 | 317 ft | 21 kts | 334° |
| 2026-04-15 21:09 | 40.89997 | 29.32087 | 322 ft | 13 kts | 334° |
| 2026-04-15 21:10 | 40.90086 | 29.32067 | 326 ft | 15 kts | 35° |
| 2026-04-15 21:10 | 40.90140 | 29.32191 | 325 ft | 16 kts | 64° |
| 2026-04-15 21:10 | 40.90192 | 29.32334 | 326 ft | 18 kts | 64° |
| 2026-04-15 21:10 | 40.90246 | 29.32482 | 326 ft | 13 kts | 65° |
| 2026-04-15 21:11 | 40.90274 | 29.32561 | 326 ft | 7 kts | 65° |
| 2026-04-15 21:11 | 40.90319 | 29.32590 | 324 ft | 9 kts | 345° |
| 2026-04-15 21:11 | 40.90383 | 29.32550 | 326 ft | 11 kts | 334° |
| 2026-04-15 21:11 | 40.90456 | 29.32503 | 325 ft | 13 kts | 334° |
| 2026-04-15 21:12 | 40.90515 | 29.32466 | 325 ft | 8 kts | 334° |
| 2026-04-15 21:12 | 40.90571 | 29.32430 | 326 ft | 10 kts | 331° |
| 2026-04-15 21:12 | 40.90618 | 29.32352 | 325 ft | 12 kts | 310° |
| 2026-04-15 21:12 | 40.90690 | 29.32294 | 326 ft | 7 kts | 334° |
| 2026-04-15 21:13 | 40.90736 | 29.32250 | 326 ft | 9 kts | 290° |
| 2026-04-15 21:13 | 40.90715 | 29.32159 | 324 ft | 12 kts | 244° |
| 2026-04-15 21:13 | 40.90677 | 29.32056 | 326 ft | 13 kts | 244° |
| 2026-04-15 21:13 | 40.90634 | 29.31938 | 326 ft | 15 kts | 244° |
| 2026-04-15 21:14 | 40.90593 | 29.31826 | 325 ft | 9 kts | 244° |
| 2026-04-15 21:14 | 40.90582 | 29.31779 | 326 ft | 5 kts | 288° |
| 2026-04-15 21:14 | 40.90612 | 29.31751 | 326 ft | 5 kts | 334° |
| 2026-04-15 21:14 | 40.90634 | 29.31737 | 326 ft | 3 kts | 334° |
| 2026-04-15 21:15 | 40.90637 | 29.31735 | 326 ft | 0 kts | 333° |
| 2026-04-15 21:15 | 40.90644 | 29.31730 | 326 ft | 0 kts | 333° |